Time,TemperatureF,DewpointF,PressureIn,WindDirection,WindDirectionDegrees,WindSpeedMPH,WindSpeedGustMPH,Humidity,HourlyPrecipIn,Conditions,Clouds,dailyrainin,SolarRadiationWatts/m^2,SoftwareType,DateUTC
2013-04-06 00:02:00,72.0,57.0,30.09,ENE,58,5.0,8.0,60,0.00,,,0.00,0.000000,,2013-04-06 10:02:00,
2013-04-06 00:12:00,72.0,57.0,30.09,ENE,58,5.0,8.0,60,0.00,,,0.00,0.000000,,2013-04-06 10:12:00,
2013-04-06 00:43:00,71.0,59.0,30.08,ENE,57,5.0,8.0,65,0.00,,,0.00,0.000000,,2013-04-06 10:43:00,
2013-04-06 00:53:00,71.0,59.0,30.08,ENE,57,5.0,8.0,65,0.00,,,0.00,0.000000,,2013-04-06 10:53:00,
2013-04-06 01:02:00,71.0,59.0,30.08,ENE,57,5.0,8.0,65,0.00,,,0.00,0.000000,,2013-04-06 11:02:00,
2013-04-06 01:12:00,71.0,59.0,30.08,ENE,57,5.0,8.0,65,0.00,,,0.00,0.000000,,2013-04-06 11:12:00,
2013-04-06 01:43:00,72.0,60.0,30.06,ENE,69,6.0,7.0,66,0.00,,,0.00,0.000000,,2013-04-06 11:43:00,
2013-04-06 01:52:00,72.0,60.0,30.06,ENE,69,6.0,7.0,66,0.00,,,0.00,0.000000,,2013-04-06 11:52:00,
2013-04-06 02:02:00,72.0,60.0,30.06,ENE,69,6.0,7.0,66,0.00,,,0.00,0.000000,,2013-04-06 12:02:00,
2013-04-06 02:12:00,72.0,60.0,30.06,ENE,69,6.0,7.0,66,0.00,,,0.00,0.000000,,2013-04-06 12:12:00,
2013-04-06 02:44:00,71.0,59.0,30.05,East,79,4.0,7.0,66,0.00,,,0.00,0.000000,,2013-04-06 12:44:00,
2013-04-06 02:52:00,71.0,59.0,30.05,East,79,4.0,7.0,66,0.00,,,0.00,0.000000,,2013-04-06 12:52:00,
2013-04-06 03:02:00,71.0,59.0,30.05,East,79,4.0,7.0,66,0.00,,,0.00,0.000000,,2013-04-06 13:02:00,
2013-04-06 03:12:00,71.0,59.0,30.05,East,79,4.0,7.0,66,0.00,,,0.00,0.000000,,2013-04-06 13:12:00,
2013-04-06 03:43:00,69.0,59.0,30.04,ESE,103,3.0,6.0,71,0.00,,,0.00,0.000000,,2013-04-06 13:43:00,
2013-04-06 03:53:00,69.0,59.0,30.04,ESE,103,3.0,6.0,71,0.00,,,0.00,0.000000,,2013-04-06 13:53:00,
2013-04-06 04:03:00,69.0,59.0,30.04,ESE,103,3.0,6.0,71,0.00,,,0.00,0.000000,,2013-04-06 14:03:00,
2013-04-06 04:12:00,69.0,59.0,30.04,ESE,103,3.0,6.0,71,0.00,,,0.00,0.000000,,2013-04-06 14:12:00,
2013-04-06 04:43:00,71.0,60.0,30.04,ENE,65,6.0,8.0,68,0.00,,,0.00,0.000000,,2013-04-06 14:43:00,
2013-04-06 04:53:00,71.0,60.0,30.04,ENE,65,6.0,8.0,68,0.00,,,0.00,0.000000,,2013-04-06 14:53:00,
2013-04-06 05:02:00,71.0,60.0,30.04,ENE,65,6.0,8.0,68,0.00,,,0.00,0.000000,,2013-04-06 15:02:00,
2013-04-06 05:11:00,71.0,60.0,30.04,ENE,65,6.0,8.0,68,0.00,,,0.00,0.000000,,2013-04-06 15:11:00,
2013-04-06 05:15:00,70.0,60.0,30.05,East,90,3.0,8.0,70,0.00,,,0.00,0.000000,,2013-04-06 15:15:00,
2013-04-06 05:43:00,70.0,60.0,30.05,East,90,3.0,8.0,70,0.00,,,0.00,0.000000,,2013-04-06 15:43:00,
2013-04-06 05:53:00,70.0,60.0,30.05,East,90,3.0,8.0,70,0.00,,,0.00,0.000000,,2013-04-06 15:53:00,
2013-04-06 06:04:00,70.0,60.0,30.05,East,90,3.0,8.0,70,0.00,,,0.00,0.000000,,2013-04-06 16:04:00,
2013-04-06 06:43:00,69.0,60.0,30.07,East,89,2.0,5.0,72,0.00,,,0.00,0.000000,,2013-04-06 16:43:00,
2013-04-06 06:53:00,69.0,60.0,30.07,East,89,2.0,5.0,72,0.00,,,0.00,0.000000,,2013-04-06 16:53:00,
2013-04-06 07:02:00,69.0,60.0,30.07,East,89,2.0,5.0,72,0.00,,,0.00,0.000000,,2013-04-06 17:02:00,
2013-04-06 07:12:00,69.0,60.0,30.07,East,89,2.0,5.0,72,0.00,,,0.00,0.000000,,2013-04-06 17:12:00,
2013-04-06 07:43:00,72.0,60.0,30.09,NE,54,3.0,8.0,65,0.00,,,0.00,44.000000,,2013-04-06 17:43:00,
2013-04-06 07:52:00,72.0,60.0,30.09,NE,54,3.0,8.0,65,0.00,,,0.00,44.000000,,2013-04-06 17:52:00,
2013-04-06 08:02:00,72.0,60.0,30.09,NE,54,3.0,8.0,65,0.00,,,0.00,44.000000,,2013-04-06 18:02:00,
2013-04-06 08:12:00,72.0,60.0,30.09,NE,54,3.0,8.0,65,0.00,,,0.00,44.000000,,2013-04-06 18:12:00,
2013-04-06 08:43:00,80.0,65.0,30.10,WNW,296,4.0,5.0,60,0.00,,,0.00,221.000000,,2013-04-06 18:43:00,
2013-04-06 08:52:00,80.0,65.0,30.10,WNW,296,4.0,5.0,60,0.00,,,0.00,221.000000,,2013-04-06 18:52:00,
2013-04-06 09:02:00,80.0,65.0,30.10,WNW,296,4.0,5.0,60,0.00,,,0.00,221.000000,,2013-04-06 19:02:00,
2013-04-06 09:12:00,80.0,65.0,30.10,WNW,296,4.0,5.0,60,0.00,,,0.00,221.000000,,2013-04-06 19:12:00,
2013-04-06 09:42:00,81.0,67.0,30.13,West,268,7.0,9.0,62,0.00,,,0.00,473.000000,,2013-04-06 19:42:00,
2013-04-06 09:53:00,81.0,67.0,30.13,West,268,7.0,9.0,62,0.00,,,0.00,473.000000,,2013-04-06 19:53:00,
2013-04-06 10:02:00,81.0,67.0,30.13,West,268,7.0,9.0,62,0.00,,,0.00,473.000000,,2013-04-06 20:02:00,
2013-04-06 10:12:00,81.0,67.0,30.13,West,268,7.0,9.0,62,0.00,,,0.00,473.000000,,2013-04-06 20:12:00,
2013-04-06 10:42:00,82.0,66.0,30.13,West,271,7.0,12.0,58,0.00,,,0.00,645.000000,,2013-04-06 20:42:00,
2013-04-06 10:52:00,82.0,66.0,30.13,West,271,7.0,12.0,58,0.00,,,0.00,645.000000,,2013-04-06 20:52:00,
2013-04-06 11:02:00,82.0,66.0,30.13,West,271,7.0,12.0,58,0.00,,,0.00,645.000000,,2013-04-06 21:02:00,
2013-04-06 11:12:00,82.0,66.0,30.13,West,271,7.0,12.0,58,0.00,,,0.00,645.000000,,2013-04-06 21:12:00,
2013-04-06 11:43:00,82.0,66.0,30.12,WNW,289,8.0,12.0,58,0.00,,,0.00,969.000000,,2013-04-06 21:43:00,
2013-04-06 11:53:00,82.0,66.0,30.12,WNW,289,8.0,12.0,58,0.00,,,0.00,969.000000,,2013-04-06 21:53:00,
2013-04-06 12:02:00,82.0,66.0,30.12,WNW,289,8.0,12.0,58,0.00,,,0.00,969.000000,,2013-04-06 22:02:00,
2013-04-06 12:12:00,82.0,66.0,30.12,WNW,289,8.0,12.0,58,0.00,,,0.00,969.000000,,2013-04-06 22:12:00,
2013-04-06 12:44:00,83.0,67.0,30.10,West,279,10.0,13.0,58,0.00,,,0.00,1078.000000,,2013-04-06 22:44:00,
2013-04-06 12:53:00,83.0,67.0,30.10,West,279,10.0,13.0,58,0.00,,,0.00,1078.000000,,2013-04-06 22:53:00,
2013-04-06 13:03:00,83.0,67.0,30.10,West,279,10.0,13.0,58,0.00,,,0.00,1078.000000,,2013-04-06 23:03:00,
2013-04-06 13:12:00,83.0,67.0,30.10,West,279,10.0,13.0,58,0.00,,,0.00,1078.000000,,2013-04-06 23:12:00,
2013-04-06 13:43:00,83.0,66.0,30.07,West,272,9.0,14.0,57,0.00,,,0.00,1109.000000,,2013-04-06 23:43:00,
2013-04-06 13:53:00,83.0,66.0,30.07,West,272,9.0,14.0,57,0.00,,,0.00,1109.000000,,2013-04-06 23:53:00,
2013-04-06 14:02:00,83.0,66.0,30.07,West,272,9.0,14.0,57,0.00,,,0.00,1109.000000,,2013-04-07 00:02:00,
2013-04-06 14:12:00,83.0,66.0,30.07,West,272,9.0,14.0,57,0.00,,,0.00,1109.000000,,2013-04-07 00:12:00,
2013-04-06 14:43:00,84.0,67.0,30.05,West,274,9.0,12.0,56,0.00,,,0.00,1054.000000,,2013-04-07 00:43:00,
2013-04-06 14:53:00,84.0,67.0,30.05,West,274,9.0,12.0,56,0.00,,,0.00,1054.000000,,2013-04-07 00:53:00,
2013-04-06 15:02:00,84.0,67.0,30.05,West,274,9.0,12.0,56,0.00,,,0.00,1054.000000,,2013-04-07 01:02:00,
2013-04-06 15:12:00,84.0,67.0,30.05,West,274,9.0,12.0,56,0.00,,,0.00,1054.000000,,2013-04-07 01:12:00,
2013-04-06 15:43:00,83.0,67.0,30.03,WNW,283,10.0,13.0,59,0.00,,,0.00,936.000000,,2013-04-07 01:43:00,
2013-04-06 15:53:00,83.0,67.0,30.03,WNW,283,10.0,13.0,59,0.00,,,0.00,936.000000,,2013-04-07 01:53:00,
2013-04-06 16:02:00,83.0,67.0,30.03,WNW,283,10.0,13.0,59,0.00,,,0.00,936.000000,,2013-04-07 02:02:00,
2013-04-06 16:12:00,83.0,67.0,30.03,WNW,283,10.0,13.0,59,0.00,,,0.00,936.000000,,2013-04-07 02:12:00,
2013-04-06 16:43:00,82.0,67.0,30.02,West,266,8.0,12.0,60,0.00,,,0.00,720.000000,,2013-04-07 02:43:00,
2013-04-06 16:52:00,82.0,67.0,30.02,West,266,8.0,12.0,60,0.00,,,0.00,720.000000,,2013-04-07 02:52:00,
2013-04-06 17:02:00,82.0,67.0,30.02,West,266,8.0,12.0,60,0.00,,,0.00,720.000000,,2013-04-07 03:02:00,
2013-04-06 17:12:00,82.0,67.0,30.02,West,266,8.0,12.0,60,0.00,,,0.00,720.000000,,2013-04-07 03:12:00,
2013-04-06 17:44:00,81.0,68.0,30.03,West,262,6.0,10.0,64,0.00,,,0.00,426.000000,,2013-04-07 03:44:00,
2013-04-06 17:54:00,81.0,68.0,30.03,West,262,6.0,10.0,64,0.00,,,0.00,426.000000,,2013-04-07 03:54:00,
2013-04-06 18:03:00,81.0,68.0,30.03,West,262,6.0,10.0,64,0.00,,,0.00,426.000000,,2013-04-07 04:03:00,
2013-04-06 18:12:00,81.0,68.0,30.03,West,262,6.0,10.0,64,0.00,,,0.00,426.000000,,2013-04-07 04:12:00,
2013-04-06 18:43:00,78.0,67.0,30.05,WSW,239,5.0,8.0,70,0.00,,,0.00,164.000000,,2013-04-07 04:43:00,
2013-04-06 18:53:00,78.0,67.0,30.05,WSW,239,5.0,8.0,70,0.00,,,0.00,164.000000,,2013-04-07 04:53:00,
2013-04-06 19:02:00,78.0,67.0,30.05,WSW,239,5.0,8.0,70,0.00,,,0.00,164.000000,,2013-04-07 05:02:00,
2013-04-06 19:12:00,78.0,67.0,30.05,WSW,239,5.0,8.0,70,0.00,,,0.00,164.000000,,2013-04-07 05:12:00,
2013-04-06 19:43:00,77.0,68.0,30.07,SSE,159,4.0,7.0,73,0.00,,,0.00,12.000000,,2013-04-07 05:43:00,
2013-04-06 19:52:00,77.0,68.0,30.07,SSE,159,4.0,7.0,73,0.00,,,0.00,12.000000,,2013-04-07 05:52:00,
2013-04-06 20:02:00,77.0,68.0,30.07,SSE,159,4.0,7.0,73,0.00,,,0.00,12.000000,,2013-04-07 06:02:00,
2013-04-06 20:12:00,77.0,68.0,30.07,SSE,159,4.0,7.0,73,0.00,,,0.00,12.000000,,2013-04-07 06:12:00,
2013-04-06 20:43:00,76.0,67.0,30.10,SSE,148,4.0,7.0,75,0.00,,,0.00,0.000000,,2013-04-07 06:43:00,
2013-04-06 20:52:00,76.0,67.0,30.10,SSE,148,4.0,7.0,75,0.00,,,0.00,0.000000,,2013-04-07 06:52:00,
2013-04-06 21:02:00,76.0,67.0,30.10,SSE,148,4.0,7.0,75,0.00,,,0.00,0.000000,,2013-04-07 07:02:00,
2013-04-06 21:12:00,76.0,67.0,30.10,SSE,148,4.0,7.0,75,0.00,,,0.00,0.000000,,2013-04-07 07:12:00,
2013-04-06 21:42:00,74.0,66.0,30.11,East,92,3.0,5.0,77,0.00,,,0.00,0.000000,,2013-04-07 07:42:00,
2013-04-06 21:52:00,74.0,66.0,30.11,East,92,3.0,5.0,77,0.00,,,0.00,0.000000,,2013-04-07 07:52:00,
2013-04-06 22:02:00,74.0,66.0,30.11,East,92,3.0,5.0,77,0.00,,,0.00,0.000000,,2013-04-07 08:02:00,
2013-04-06 22:12:00,74.0,66.0,30.11,East,92,3.0,5.0,77,0.00,,,0.00,0.000000,,2013-04-07 08:12:00,
2013-04-06 22:43:00,73.0,65.0,30.13,ENE,57,4.0,5.0,76,0.00,,,0.00,0.000000,,2013-04-07 08:43:00,
2013-04-06 22:53:00,73.0,65.0,30.13,ENE,57,4.0,5.0,76,0.00,,,0.00,0.000000,,2013-04-07 08:53:00,
2013-04-06 23:02:00,73.0,65.0,30.13,ENE,57,4.0,5.0,76,0.00,,,0.00,0.000000,,2013-04-07 09:02:00,
2013-04-06 23:12:00,73.0,65.0,30.13,ENE,57,4.0,5.0,76,0.00,,,0.00,0.000000,,2013-04-07 09:12:00,
2013-04-06 23:44:00,72.0,64.0,30.12,NE,50,5.0,6.0,77,0.00,,,0.00,0.000000,,2013-04-07 09:44:00,
2013-04-06 23:53:00,72.0,64.0,30.12,NE,50,5.0,6.0,77,0.00,,,0.00,0.000000,,2013-04-07 09:53:00,